createdAt,value
2022-11-08T00:00:24.655Z,98144.88
2022-11-08T00:02:28.461Z,98153.94
2022-11-08T00:04:32.510Z,98161.06
2022-11-08T00:06:54.240Z,98154.94
2022-11-08T00:09:15.267Z,98156.94
2022-11-08T00:11:36.102Z,98152.63
2022-11-08T00:14:00.037Z,98154.59
2022-11-08T00:16:03.759Z,98162.53
2022-11-08T00:18:08.232Z,98162.53
2022-11-08T00:20:12.756Z,98171.50
2022-11-08T00:22:17.216Z,98175.13
2022-11-08T00:24:21.950Z,98174.31
2022-11-08T00:26:25.630Z,98179.06
2022-11-08T00:28:29.369Z,98173.78
2022-11-08T00:30:34.549Z,98177.41
2022-11-08T00:32:38.251Z,98182.06
2022-11-08T00:34:41.941Z,98176.94
2022-11-08T00:36:45.782Z,98179.72
2022-11-08T00:38:49.434Z,98179.56
2022-11-08T00:40:53.131Z,98184.03
2022-11-08T00:42:56.758Z,98172.44
2022-11-08T00:45:00.588Z,98166.34
2022-11-08T00:47:06.214Z,98164.69
2022-11-08T00:49:10.694Z,98174.41
2022-11-08T00:51:15.128Z,98178.88
2022-11-08T00:53:18.817Z,98177.22
2022-11-08T00:55:22.463Z,98178.88
2022-11-08T00:57:41.169Z,98187.00
2022-11-08T00:59:49.081Z,98185.16
2022-11-08T01:01:52.492Z,98185.34
2022-11-08T01:03:57.402Z,98187.97
2022-11-08T01:06:06.730Z,98186.16
2022-11-08T01:08:10.693Z,98190.63
2022-11-08T01:10:13.979Z,98179.06
2022-11-08T01:12:17.475Z,98171.28
2022-11-08T01:14:20.931Z,98177.56
2022-11-08T01:16:26.310Z,98178.38
2022-11-08T01:18:29.718Z,98177.41
2022-11-08T01:20:34.572Z,98185.66
2022-11-08T01:22:37.862Z,98187.63
2022-11-08T01:24:41.210Z,98184.16
2022-11-08T01:26:44.454Z,98186.97
2022-11-08T01:28:48.664Z,98186.81
2022-11-08T01:30:52.079Z,98184.16
2022-11-08T01:32:55.916Z,98184.31
2022-11-08T01:34:59.144Z,98180.19
2022-11-08T01:37:03.959Z,98181.00
2022-11-08T01:39:07.211Z,98180.34
2022-11-08T01:41:13.575Z,98199.03
2022-11-08T01:43:37.000Z,98194.88
2022-11-08T01:46:17.496Z,98206.44
2022-11-08T01:48:20.924Z,98201.16
2022-11-08T01:50:24.385Z,98215.34
2022-11-08T01:52:36.584Z,98211.91
2022-11-08T01:54:45.801Z,98203.59
2022-11-08T01:56:49.841Z,98202.25
2022-11-08T01:58:56.614Z,98204.41
2022-11-08T02:01:03.317Z,98201.91
2022-11-08T02:03:09.150Z,98204.72
2022-11-08T02:05:25.983Z,98204.72
2022-11-08T02:07:31.481Z,98210.84
2022-11-08T02:09:39.424Z,98201.09
2022-11-08T02:11:44.374Z,98203.56
2022-11-08T02:13:47.714Z,98201.78
2022-11-08T02:15:51.266Z,98199.94
2022-11-08T02:17:55.300Z,98206.22
2022-11-08T02:19:58.612Z,98200.75
2022-11-08T02:22:08.315Z,98205.06
2022-11-08T02:24:15.206Z,98195.31
2022-11-08T02:26:20.764Z,98195.19
2022-11-08T02:28:24.058Z,98189.72
2022-11-08T02:30:34.009Z,98182.59
2022-11-08T02:32:40.638Z,98188.88
2022-11-08T02:34:48.116Z,98189.88
2022-11-08T02:36:51.981Z,98197.66
2022-11-08T02:38:58.737Z,98185.41
2022-11-08T02:41:03.533Z,98184.59
2022-11-08T02:43:06.821Z,98178.47
2022-11-08T02:45:11.339Z,98176.78
2022-11-08T02:47:15.153Z,98178.47
2022-11-08T02:49:19.094Z,98182.59
2022-11-08T02:51:22.401Z,98180.78
2022-11-08T02:53:25.733Z,98175.97
2022-11-08T02:55:30.312Z,98187.34
2022-11-08T02:57:35.067Z,98172.94
2022-11-08T02:59:38.396Z,98176.25
2022-11-08T03:01:41.925Z,98177.84
2022-11-08T03:03:45.348Z,98179.78
2022-11-08T03:05:48.764Z,98177.09
2022-11-08T03:07:52.129Z,98173.56
2022-11-08T03:09:55.372Z,98164.22
2022-11-08T03:11:58.809Z,98167.66
2022-11-08T03:14:03.393Z,98167.78
2022-11-08T03:16:07.755Z,98164.06
2022-11-08T03:18:11.114Z,98155.94
2022-11-08T03:20:14.446Z,98157.09
2022-11-08T03:22:17.700Z,98161.00
2022-11-08T03:24:21.034Z,98163.78
2022-11-08T03:26:24.252Z,98157.53
2022-11-08T03:28:29.291Z,98156.56
2022-11-08T03:30:34.891Z,98146.66
2022-11-08T03:32:38.077Z,98145.38
2022-11-08T03:34:41.389Z,98140.09
2022-11-08T03:36:44.794Z,98138.13
2022-11-08T03:38:48.020Z,98141.97
2022-11-08T03:40:51.341Z,98122.88
2022-11-08T03:42:56.719Z,98119.91
2022-11-08T03:44:59.911Z,98117.75
2022-11-08T03:47:04.579Z,98110.38
2022-11-08T03:49:07.918Z,98120.44
2022-11-08T03:51:11.258Z,98123.94
2022-11-08T03:53:14.509Z,98115.84
2022-11-08T03:55:18.993Z,98111.25
2022-11-08T03:57:22.184Z,98101.66
2022-11-08T03:59:25.380Z,98103.34
2022-11-08T04:01:28.821Z,98092.75
2022-11-08T04:03:34.265Z,98100.69
2022-11-08T04:05:37.541Z,98092.75
2022-11-08T04:07:41.318Z,98093.56
2022-11-08T04:09:44.509Z,98092.59
2022-11-08T04:12:05.331Z,98087.16
2022-11-08T04:14:26.962Z,98074.44
2022-11-08T04:16:32.619Z,98074.97
2022-11-08T04:18:55.241Z,98075.78
2022-11-08T04:21:19.199Z,98071.16
2022-11-08T04:23:22.644Z,98052.50
2022-11-08T04:25:26.744Z,98054.19
2022-11-08T04:27:32.230Z,98052.19
2022-11-08T04:29:35.484Z,98048.88
2022-11-08T04:31:39.137Z,98040.28
2022-11-08T04:33:44.420Z,98041.28
2022-11-08T04:35:48.047Z,98032.50
2022-11-08T04:37:51.367Z,98030.72
2022-11-08T04:39:54.642Z,98026.91
2022-11-08T04:42:02.174Z,98021.63
2022-11-08T04:44:05.989Z,98025.44
2022-11-08T04:46:11.196Z,98021.78
2022-11-08T04:48:14.554Z,98027.75
2022-11-08T04:50:19.388Z,98023.13
2022-11-08T04:52:22.731Z,98011.88
2022-11-08T04:54:26.087Z,98016.19
2022-11-08T04:56:31.062Z,98016.53
2022-11-08T04:58:35.839Z,98027.44
2022-11-08T05:00:39.084Z,98027.63
2022-11-08T05:02:42.682Z,98020.06
2022-11-08T05:04:46.049Z,98024.84
2022-11-08T05:06:50.789Z,98015.59
2022-11-08T05:08:55.856Z,98021.41
2022-11-08T05:11:03.163Z,98011.31
2022-11-08T05:13:06.362Z,98001.41
2022-11-08T05:15:10.600Z,98013.31
2022-11-08T05:17:13.853Z,98004.06
2022-11-08T05:19:37.338Z,97996.47
2022-11-08T05:21:58.053Z,97933.97
2022-11-08T05:24:03.033Z,97907.19
2022-11-08T05:26:06.901Z,97924.72
2022-11-08T05:28:10.251Z,97925.53
2022-11-08T05:30:13.922Z,97944.22
2022-11-08T05:32:17.217Z,97945.69
2022-11-08T05:34:20.531Z,97937.44
2022-11-08T05:36:23.751Z,97947.53
2022-11-08T05:38:27.084Z,97940.59
2022-11-08T05:40:33.482Z,97939.09
2022-11-08T05:42:36.883Z,97941.72
2022-11-08T05:44:40.238Z,97945.38
2022-11-08T05:46:44.086Z,97940.91
2022-11-08T05:48:50.040Z,97939.25
2022-11-08T05:50:53.382Z,97946.22
2022-11-08T05:52:56.686Z,97935.63
2022-11-08T05:55:00.136Z,97920.75
2022-11-08T05:57:04.944Z,97918.09
2022-11-08T05:59:08.165Z,97914.66
2022-11-08T06:01:13.094Z,97911.84
2022-11-08T06:03:20.917Z,97900.25
2022-11-08T06:05:26.274Z,97907.88
2022-11-08T06:07:30.022Z,97899.94
2022-11-08T06:09:33.375Z,97900.25
2022-11-08T06:11:36.575Z,97907.03
2022-11-08T06:13:41.701Z,97907.88
2022-11-08T06:15:44.931Z,97910.97
2022-11-08T06:17:48.265Z,97906.84
2022-11-08T06:19:51.584Z,97908.03
2022-11-08T06:21:54.848Z,97899.09
2022-11-08T06:23:58.126Z,97899.94
2022-11-08T06:26:01.920Z,97897.13
2022-11-08T06:28:05.429Z,97898.44
2022-11-08T06:30:11.282Z,97898.78
2022-11-08T06:32:15.137Z,97899.94
2022-11-08T06:34:18.607Z,97902.06
2022-11-08T06:36:21.961Z,97904.22
2022-11-08T06:38:25.466Z,97898.59
2022-11-08T06:40:28.862Z,97894.63
2022-11-08T06:42:32.120Z,97897.91
2022-11-08T06:44:35.612Z,97908.50
2022-11-08T06:46:40.231Z,97908.19
2022-11-08T06:48:43.632Z,97908.19
2022-11-08T06:50:46.970Z,97905.03
2022-11-08T06:52:57.152Z,97904.22
2022-11-08T06:55:01.781Z,97900.91
2022-11-08T06:57:05.279Z,97905.22
2022-11-08T06:59:08.771Z,97900.72
2022-11-08T07:01:13.514Z,97909.50
2022-11-08T07:03:19.167Z,97899.91
2022-11-08T07:05:23.410Z,97888.84
2022-11-08T07:07:26.739Z,97881.75
2022-11-08T07:09:30.243Z,97880.09
2022-11-08T07:11:33.571Z,97876.78
2022-11-08T07:13:36.984Z,97883.06
2022-11-08T07:15:41.180Z,97877.94
2022-11-08T07:17:44.811Z,97879.75
2022-11-08T07:19:49.732Z,97885.69
2022-11-08T07:21:53.101Z,97882.91
2022-11-08T07:23:56.421Z,97884.41
2022-11-08T07:26:02.736Z,97877.09
2022-11-08T07:28:08.115Z,97882.22
2022-11-08T07:30:12.644Z,97885.72
2022-11-08T07:32:15.982Z,97889.19
2022-11-08T07:34:19.266Z,97880.44
2022-11-08T07:36:24.088Z,97892.63
2022-11-08T07:38:27.431Z,97882.06
2022-11-08T07:40:30.805Z,97888.38
2022-11-08T07:42:57.200Z,97878.59
2022-11-08T07:45:00.908Z,97878.44
2022-11-08T07:47:04.196Z,97883.53
2022-11-08T07:49:07.968Z,97882.56
2022-11-08T07:51:11.376Z,97880.09
2022-11-08T07:53:16.478Z,97887.19
2022-11-08T07:55:20.321Z,97886.19
2022-11-08T07:57:23.648Z,97886.34
2022-11-08T07:59:26.960Z,97884.69
2022-11-08T08:01:30.525Z,97886.53
2022-11-08T08:03:34.288Z,97879.41
2022-11-08T08:05:39.248Z,97886.34
2022-11-08T08:07:42.613Z,97891.66
2022-11-08T08:09:47.468Z,97901.25
2022-11-08T08:11:50.857Z,97900.25
2022-11-08T08:13:56.071Z,97892.97
2022-11-08T08:16:01.695Z,97901.56
2022-11-08T08:18:06.832Z,97901.22
2022-11-08T08:20:11.256Z,97901.88
2022-11-08T08:22:14.763Z,97908.00
2022-11-08T08:24:18.187Z,97903.53
2022-11-08T08:26:23.266Z,97917.75
2022-11-08T08:28:26.657Z,97917.75
2022-11-08T08:30:31.504Z,97925.84
2022-11-08T08:32:36.169Z,97926.72
2022-11-08T08:34:39.931Z,97921.41
2022-11-08T08:36:43.504Z,97926.72
2022-11-08T08:38:47.310Z,97922.22
2022-11-08T08:40:51.581Z,97913.47
2022-11-08T08:42:56.935Z,97924.88
2022-11-08T08:45:00.591Z,97918.78
2022-11-08T08:47:04.384Z,97919.59
2022-11-08T08:49:08.375Z,97924.06
2022-11-08T08:51:12.361Z,97912.47
2022-11-08T08:53:16.461Z,97912.28
2022-11-08T08:55:20.421Z,97918.09
2022-11-08T08:57:24.090Z,97918.59
2022-11-08T09:01:53.837Z,97927.31
2022-11-08T09:03:58.494Z,97920.38
2022-11-08T09:06:04.488Z,97927.31
2022-11-08T09:08:08.714Z,97925.03
2022-11-08T09:10:13.794Z,97931.31
2022-11-08T09:12:18.080Z,97929.97
2022-11-08T09:14:22.416Z,97928.31
2022-11-08T09:16:28.250Z,97928.00
2022-11-08T09:18:33.385Z,97930.97
2022-11-08T09:20:37.884Z,97926.69
2022-11-08T09:22:43.022Z,97932.13
2022-11-08T09:24:47.068Z,97937.53
2022-11-08T09:26:51.728Z,97932.91
2022-11-08T09:28:56.349Z,97933.38
2022-11-08T09:31:05.827Z,97943.63
2022-11-08T09:33:12.021Z,97948.72
2022-11-08T09:35:17.330Z,97946.38
2022-11-08T09:37:22.173Z,97941.72
2022-11-08T09:39:26.667Z,97943.88
2022-11-08T09:41:55.499Z,97940.69
2022-11-08T09:44:15.606Z,97945.97
2022-11-08T09:46:29.262Z,97953.06
2022-11-08T09:48:39.498Z,97945.25
2022-11-08T09:50:47.210Z,97946.22
2022-11-08T09:52:57.160Z,97942.59
2022-11-08T09:55:15.990Z,97942.59
2022-11-08T09:57:26.860Z,97945.06
2022-11-08T09:59:38.994Z,97942.25
2022-11-08T10:01:45.357Z,97949.88
2022-11-08T10:03:56.397Z,97953.56
2022-11-08T10:06:37.300Z,97952.53
2022-11-08T10:09:04.184Z,97961.59
2022-11-08T10:11:21.241Z,97960.56
2022-11-08T10:13:39.130Z,97950.75
2022-11-08T10:15:54.768Z,97949.41
2022-11-08T10:18:17.396Z,97943.38
2022-11-08T10:20:35.208Z,97941.53
2022-11-08T10:22:52.077Z,97948.53
2022-11-08T10:25:02.533Z,97944.75
2022-11-08T10:27:21.252Z,97933.63
2022-11-08T10:29:29.291Z,97952.72
2022-11-08T10:31:35.255Z,97941.31
2022-11-08T10:33:47.348Z,97954.13
2022-11-08T10:36:02.056Z,97954.97
2022-11-08T10:38:19.384Z,97946.50
2022-11-08T10:40:39.190Z,97956.81
2022-11-08T10:42:48.118Z,97955.44
2022-11-08T10:44:52.090Z,97955.66
2022-11-08T10:47:02.062Z,97948.97
2022-11-08T10:49:14.502Z,97960.25
2022-11-08T10:51:19.800Z,97962.34
2022-11-08T10:53:28.033Z,97963.81
2022-11-08T10:55:37.128Z,97966.84
2022-11-08T10:57:45.338Z,97966.19
2022-11-08T10:59:49.359Z,97983.53
2022-11-08T11:01:53.192Z,97980.97
2022-11-08T11:03:57.063Z,97976.41
2022-11-08T11:06:02.892Z,97976.78
2022-11-08T11:08:19.278Z,97969.34
2022-11-08T11:10:26.279Z,97964.88
2022-11-08T11:12:31.372Z,97972.00
2022-11-08T11:14:35.408Z,97966.59
2022-11-08T11:16:39.805Z,97956.91
2022-11-08T11:18:50.928Z,97963.47
2022-11-08T11:21:04.401Z,97957.97
2022-11-08T11:23:13.146Z,97960.03
2022-11-08T11:25:19.335Z,97956.81
2022-11-08T11:27:28.244Z,97958.53
2022-11-08T11:29:33.983Z,97968.38
2022-11-08T11:31:39.480Z,97970.72
2022-11-08T11:33:46.764Z,97956.16
2022-11-08T11:35:56.468Z,97947.09
2022-11-08T11:38:02.925Z,97958.63
2022-11-08T11:40:20.765Z,97955.84
2022-11-08T11:42:45.171Z,97955.84
2022-11-08T11:45:01.978Z,97940.84
2022-11-08T11:47:15.581Z,97950.41
2022-11-08T11:49:22.305Z,97951.34
2022-11-08T11:51:29.460Z,97947.16
2022-11-08T11:53:39.037Z,97948.63
2022-11-08T11:55:59.304Z,97947.63
2022-11-08T11:58:13.083Z,97942.75
2022-11-08T12:00:17.843Z,97926.19
2022-11-08T12:02:53.272Z,97923.44
2022-11-08T12:05:23.507Z,97919.69
2022-11-08T12:07:28.852Z,97931.66
2022-11-08T12:09:45.554Z,97934.50
2022-11-08T12:12:00.303Z,97929.38
2022-11-08T12:14:26.561Z,97926.91
2022-11-08T12:16:37.555Z,97923.75
2022-11-08T12:18:58.392Z,97919.63
2022-11-08T12:21:10.783Z,97927.41
2022-11-08T12:23:38.995Z,97928.53
2022-11-08T12:25:52.891Z,97919.00
2022-11-08T12:28:07.947Z,97916.66
2022-11-08T12:30:17.417Z,97920.78
2022-11-08T12:32:36.485Z,97914.84
2022-11-08T12:34:49.714Z,97915.19
2022-11-08T12:37:14.925Z,97919.00
2022-11-08T12:39:30.796Z,97907.13
2022-11-08T12:41:46.396Z,97905.81
2022-11-08T12:44:10.347Z,97913.97
2022-11-08T12:46:18.670Z,97894.56
2022-11-08T12:48:35.606Z,97897.59
2022-11-08T12:50:49.029Z,97890.81
2022-11-08T12:53:28.842Z,97884.03
2022-11-08T12:55:38.904Z,97889.53
2022-11-08T12:57:44.587Z,97889.72
2022-11-08T12:59:57.987Z,97896.19
2022-11-08T13:02:04.901Z,97901.50
2022-11-08T13:04:30.091Z,97892.34
2022-11-08T13:06:43.423Z,97900.13
2022-11-08T13:08:57.750Z,97891.00
2022-11-08T13:11:14.116Z,97885.16
2022-11-08T13:13:29.878Z,97883.16
2022-11-08T13:15:36.620Z,97892.75
2022-11-08T13:17:41.306Z,97897.59
2022-11-08T13:20:05.842Z,97901.59
2022-11-08T13:26:24.010Z,97890.94
2022-11-08T13:28:46.117Z,97888.63
2022-11-08T13:31:04.194Z,97885.34
2022-11-08T13:33:23.098Z,97890.66
2022-11-08T13:35:33.149Z,97894.28
2022-11-08T13:37:55.697Z,97906.94
2022-11-08T13:40:18.859Z,97893.84
2022-11-08T13:42:40.644Z,97894.00
2022-11-08T13:45:00.459Z,97907.25
2022-11-08T13:47:05.719Z,97910.09
2022-11-08T13:49:20.993Z,97913.41
2022-11-08T13:51:27.827Z,97909.56
2022-11-08T13:53:47.610Z,97916.34
2022-11-08T13:55:56.999Z,97913.97
2022-11-08T13:58:05.257Z,97918.22
2022-11-08T14:00:33.924Z,97904.25
2022-11-08T14:02:41.248Z,97922.09
2022-11-08T14:04:46.189Z,97933.00
2022-11-08T14:07:01.718Z,97930.19
2022-11-08T14:09:20.809Z,97915.63
2022-11-08T14:11:40.773Z,97923.94
2022-11-08T14:14:21.761Z,97921.91
2022-11-08T14:16:30.962Z,97933.72
2022-11-08T14:18:39.480Z,97931.44
2022-11-08T14:20:45.053Z,97923.66
2022-11-08T14:22:50.585Z,97926.00
2022-11-08T14:24:59.923Z,97928.34
2022-11-08T14:27:04.318Z,97941.34
2022-11-08T14:29:10.627Z,97932.91
2022-11-08T14:31:27.101Z,97942.03
2022-11-08T14:33:31.861Z,97943.75
2022-11-08T14:35:37.068Z,97932.84
2022-11-08T14:37:44.391Z,97942.81
2022-11-08T14:39:49.171Z,97941.31
2022-11-08T14:41:55.933Z,97943.31
2022-11-08T14:44:02.339Z,97941.19
2022-11-08T14:46:13.635Z,97950.50
2022-11-08T14:48:23.703Z,97948.19
2022-11-08T14:50:32.140Z,97951.19
2022-11-08T14:52:37.592Z,97954.19
2022-11-08T14:54:43.994Z,97953.69
2022-11-08T14:56:50.763Z,97960.84
2022-11-08T14:58:56.438Z,97970.94
2022-11-08T15:01:03.866Z,97968.47
2022-11-08T15:03:08.509Z,97966.34
2022-11-08T15:05:28.651Z,97972.81
2022-11-08T15:07:33.698Z,97972.31
2022-11-08T15:09:39.236Z,97977.16
2022-11-08T15:11:46.520Z,97978.50
2022-11-08T15:13:54.740Z,97986.44
2022-11-08T15:16:04.468Z,97984.97
2022-11-08T15:18:15.297Z,97985.13
2022-11-08T15:20:23.598Z,97990.75
2022-11-08T15:22:30.729Z,97989.28
2022-11-08T15:24:40.995Z,97995.75
2022-11-08T15:27:07.015Z,97998.72
2022-11-08T15:29:19.983Z,98000.06
2022-11-08T15:31:23.647Z,98009.03
2022-11-08T15:33:31.820Z,98005.69
2022-11-08T15:35:38.689Z,98007.53
2022-11-08T15:37:44.075Z,98001.56
2022-11-08T15:39:49.521Z,98014.97
2022-11-08T15:42:04.967Z,98007.19
2022-11-08T15:44:22.444Z,98013.63
2022-11-08T15:46:30.937Z,98014.63
2022-11-08T15:48:35.572Z,98016.63
2022-11-08T15:50:41.685Z,98015.31
2022-11-08T15:52:47.404Z,98011.00
2022-11-08T15:54:53.033Z,98027.22
2022-11-08T15:56:58.582Z,98028.56
2022-11-08T15:59:03.247Z,98029.72
2022-11-08T16:01:08.466Z,98035.19
2022-11-08T16:03:12.923Z,98032.84
2022-11-08T16:05:21.658Z,98038.13
2022-11-08T16:07:26.676Z,98040.94
2022-11-08T16:09:30.577Z,98049.06
2022-11-08T16:11:39.064Z,98043.13
2022-11-08T16:13:43.224Z,98043.28
2022-11-08T16:15:48.779Z,98048.72
2022-11-08T16:17:52.718Z,98055.03
2022-11-08T16:19:57.305Z,98057.00
2022-11-08T16:22:07.383Z,98049.22
2022-11-08T16:24:11.417Z,98049.41
2022-11-08T16:26:18.514Z,98060.97
2022-11-08T16:28:35.185Z,98063.78
2022-11-08T16:30:39.008Z,98060.50
2022-11-08T16:32:44.032Z,98076.38
2022-11-08T16:34:47.762Z,98068.56
2022-11-08T16:36:52.180Z,98066.94
2022-11-08T16:38:57.557Z,98058.16
2022-11-08T16:41:01.252Z,98077.53
2022-11-08T16:43:04.889Z,98087.25
2022-11-08T16:45:10.978Z,98080.31
2022-11-08T16:47:19.292Z,98086.44
2022-11-08T16:49:27.066Z,98094.22
2022-11-08T16:51:30.897Z,98095.03
2022-11-08T16:53:37.124Z,98088.09
2022-11-08T16:55:40.880Z,98095.03
2022-11-08T16:57:44.926Z,98100.31
2022-11-08T16:59:48.659Z,98098.69
2022-11-08T17:01:54.312Z,98094.22
2022-11-08T17:03:58.112Z,98095.19
2022-11-08T17:06:02.346Z,98097.03
2022-11-08T17:08:06.613Z,98097.03
2022-11-08T17:10:14.053Z,98112.91
2022-11-08T17:12:18.205Z,98117.34
2022-11-08T17:14:22.296Z,98116.38
2022-11-08T17:16:27.252Z,98107.44
2022-11-08T17:18:32.315Z,98115.22
2022-11-08T17:20:37.524Z,98119.53
2022-11-08T17:22:41.416Z,98125.47
2022-11-08T17:24:45.452Z,98125.47
2022-11-08T17:26:49.261Z,98127.28
2022-11-08T17:28:56.533Z,98125.47
2022-11-08T17:31:10.642Z,98136.06
2022-11-08T17:33:14.688Z,98130.75
2022-11-08T17:35:19.704Z,98141.22
2022-11-08T17:37:23.560Z,98147.16
2022-11-08T17:39:27.328Z,98146.97
2022-11-08T17:41:31.725Z,98148.66
2022-11-08T17:43:36.054Z,98153.94
2022-11-08T17:45:41.152Z,98160.06
2022-11-08T17:47:44.995Z,98152.97
2022-11-08T17:49:48.744Z,98147.66
2022-11-08T17:51:54.030Z,98150.31
2022-11-08T17:53:58.456Z,98161.88
2022-11-08T17:56:04.623Z,98160.06
2022-11-08T17:58:09.862Z,98159.22
2022-11-08T18:00:16.535Z,98164.53
2022-11-08T18:02:21.016Z,98149.47
2022-11-08T18:04:26.557Z,98163.38
2022-11-08T18:06:31.302Z,98157.25
2022-11-08T18:08:38.983Z,98160.72
2022-11-08T18:10:47.785Z,98167.81
2022-11-08T18:12:51.956Z,98162.53
2022-11-08T18:14:56.747Z,98168.84
2022-11-08T18:17:00.478Z,98167.19
2022-11-08T18:19:07.072Z,98184.72
2022-11-08T18:21:11.761Z,98169.66
2022-11-08T18:23:15.599Z,98187.38
2022-11-08T18:25:23.491Z,98190.00
2022-11-08T18:27:28.196Z,98186.53
2022-11-08T18:29:34.709Z,98205.91
2022-11-08T18:31:41.489Z,98208.53
2022-11-08T18:33:46.671Z,98216.31
2022-11-08T18:35:51.682Z,98222.44
2022-11-08T18:37:57.904Z,98229.38
2022-11-08T18:40:03.011Z,98221.28
2022-11-08T18:42:09.378Z,98230.19
2022-11-08T18:44:14.482Z,98228.41
2022-11-08T18:46:20.204Z,98239.00
2022-11-08T18:48:24.462Z,98243.59
2022-11-08T18:50:28.614Z,98241.94
2022-11-08T18:52:33.307Z,98261.47
2022-11-08T18:54:37.245Z,98258.16
2022-11-08T18:56:41.223Z,98260.13
2022-11-08T18:58:47.979Z,98273.53
2022-11-08T19:00:54.662Z,98270.22
2022-11-08T19:02:59.339Z,98269.69
2022-11-08T19:05:04.704Z,98283.94
2022-11-08T19:07:11.193Z,98285.06
2022-11-08T19:09:15.700Z,98279.78
2022-11-08T19:11:23.212Z,98285.88
2022-11-08T19:13:28.625Z,98295.81
2022-11-08T19:15:33.880Z,98300.25
2022-11-08T19:17:37.678Z,98300.41
2022-11-08T19:19:41.931Z,98307.69
2022-11-08T19:21:45.675Z,98301.06
2022-11-08T19:23:50.772Z,98312.63
2022-11-08T19:26:00.405Z,98317.22
2022-11-08T19:28:04.545Z,98318.25
2022-11-08T19:30:09.698Z,98324.50
2022-11-08T19:32:15.879Z,98333.44
2022-11-08T19:34:20.043Z,98333.44
2022-11-08T19:36:25.505Z,98347.63
2022-11-08T19:38:29.723Z,98359.22
2022-11-08T19:40:33.452Z,98361.34
2022-11-08T19:42:37.125Z,98368.47
2022-11-08T19:44:41.426Z,98365.81
2022-11-08T19:46:46.072Z,98372.91
2022-11-08T19:48:53.039Z,98382.66
2022-11-08T19:50:57.110Z,98383.47
2022-11-08T19:53:06.679Z,98390.59
2022-11-08T19:55:14.384Z,98395.88
2022-11-08T19:57:20.427Z,98394.22
2022-11-08T19:59:25.677Z,98395.03
2022-11-08T20:01:36.313Z,98405.50
2022-11-08T20:03:43.936Z,98403.81
2022-11-08T20:05:53.271Z,98413.72
2022-11-08T20:07:58.286Z,98404.97
2022-11-08T20:10:02.828Z,98419.00
2022-11-08T20:12:07.239Z,98427.94
2022-11-08T20:14:14.317Z,98429.59
2022-11-08T20:16:26.496Z,98435.88
2022-11-08T20:18:30.122Z,98445.47
2022-11-08T20:20:34.119Z,98455.22
2022-11-08T20:22:41.250Z,98453.25
2022-11-08T20:24:46.383Z,98458.53
2022-11-08T20:26:50.418Z,98459.53
2022-11-08T20:28:57.024Z,98462.34
2022-11-08T20:31:04.455Z,98469.41
2022-11-08T20:33:08.219Z,98475.69
2022-11-08T20:35:11.896Z,98475.69
2022-11-08T20:37:15.902Z,98477.50
2022-11-08T20:39:23.447Z,98477.50
2022-11-08T20:41:27.343Z,98476.84
2022-11-08T20:43:33.179Z,98485.44
2022-11-08T20:45:41.863Z,98493.53
2022-11-08T20:47:48.260Z,98491.72
2022-11-08T20:49:52.737Z,98498.84
2022-11-08T20:51:58.146Z,98498.84
2022-11-08T20:54:04.035Z,98494.50
2022-11-08T20:56:12.357Z,98505.94
2022-11-08T20:58:16.521Z,98510.38
2022-11-08T21:00:51.877Z,98524.59
2022-11-08T21:02:50.093Z,98525.44
2022-11-08T21:04:53.604Z,98531.69
2022-11-08T21:07:59.305Z,98526.41
2022-11-08T21:09:37.331Z,98530.03
2022-11-08T21:11:46.279Z,98541.75
2022-11-08T21:13:50.273Z,98551.50
2022-11-08T21:15:54.405Z,98545.50
2022-11-08T21:17:58.281Z,98554.44
2022-11-08T21:20:02.153Z,98560.56
2022-11-08T21:22:17.866Z,98562.38
2022-11-08T21:24:22.559Z,98554.44
2022-11-08T21:26:27.485Z,98567.66
2022-11-08T21:28:40.116Z,98575.59
2022-11-08T21:31:02.054Z,98581.72
2022-11-08T21:33:08.640Z,98579.91
2022-11-08T21:35:12.802Z,98580.91
2022-11-08T21:37:17.156Z,98586.19
2022-11-08T21:39:21.455Z,98585.19
2022-11-08T21:41:26.320Z,98582.53
2022-11-08T21:43:37.117Z,98606.34
2022-11-08T21:45:42.735Z,98602.72
2022-11-08T21:47:52.361Z,98601.06
2022-11-08T21:49:57.228Z,98605.38
2022-11-08T21:52:04.316Z,98602.06
2022-11-08T21:54:08.922Z,98615.28
2022-11-08T21:56:13.340Z,98613.47
2022-11-08T21:58:21.585Z,98612.63
2022-11-08T22:00:29.114Z,98630.16
2022-11-08T22:02:33.685Z,98625.84
2022-11-08T22:04:41.097Z,98622.38
2022-11-08T22:06:47.822Z,98629.47
2022-11-08T22:08:52.553Z,98628.78
2022-11-08T22:10:57.222Z,98634.91
2022-11-08T22:13:01.465Z,98642.00
2022-11-08T22:15:06.279Z,98644.66
2022-11-08T22:17:11.830Z,98636.72
2022-11-08T22:19:16.299Z,98639.34
2022-11-08T22:21:37.647Z,98644.66
2022-11-08T22:23:41.560Z,98648.28
2022-11-08T22:25:45.346Z,98649.13
2022-11-08T22:27:49.433Z,98650.94
2022-11-08T22:29:53.568Z,98655.22
2022-11-08T22:31:57.429Z,98665.81
2022-11-08T22:34:02.874Z,98667.47
2022-11-08T22:36:06.872Z,98671.09
2022-11-08T22:38:10.622Z,98664.97
2022-11-08T22:40:16.694Z,98661.50
2022-11-08T22:42:20.553Z,98672.91
2022-11-08T22:44:25.134Z,98679.03
2022-11-08T22:46:28.930Z,98681.66
2022-11-08T22:48:32.938Z,98680.03
2022-11-08T22:50:51.067Z,98684.63
2022-11-08T22:52:55.197Z,98689.22
2022-11-08T22:54:59.328Z,98695.50
2022-11-08T22:57:04.287Z,98703.44
2022-11-08T22:59:08.013Z,98712.31
2022-11-08T23:01:14.604Z,98705.38
2022-11-08T23:03:18.696Z,98709.97
2022-11-08T23:05:22.715Z,98714.44
2022-11-08T23:07:28.145Z,98714.56
2022-11-08T23:09:32.400Z,98714.44
2022-11-08T23:11:53.707Z,98714.56
2022-11-08T23:14:15.310Z,98723.50
2022-11-08T23:16:35.671Z,98730.44
2022-11-08T23:18:59.869Z,98728.78
2022-11-08T23:21:21.188Z,98735.88
2022-11-08T23:23:43.636Z,98726.28
2022-11-08T23:25:47.747Z,98742.97
2022-11-08T23:28:08.701Z,98743.94
2022-11-08T23:30:32.994Z,98749.22
2022-11-08T23:32:37.497Z,98750.09
2022-11-08T23:34:41.465Z,98752.59
2022-11-08T23:36:45.416Z,98760.38
2022-11-08T23:38:52.936Z,98754.94
2022-11-08T23:41:17.629Z,98753.09
2022-11-08T23:43:39.166Z,98755.09
2022-11-08T23:45:43.223Z,98743.78
2022-11-08T23:47:47.688Z,98753.69
2022-11-08T23:49:51.695Z,98748.25
2022-11-08T23:51:56.365Z,98757.16
2022-11-08T23:54:01.791Z,98762.47
2022-11-08T23:56:06.027Z,98773.03
2022-11-08T23:58:10.166Z,98766.91
